createdAt,value
2022-07-25T00:00:01.504Z,92.78
2022-07-25T00:01:01.487Z,91.91
2022-07-25T00:02:56.682Z,91.82
2022-07-25T00:03:56.772Z,93.02
2022-07-25T00:05:50.839Z,92.35
2022-07-25T00:06:50.828Z,92.97
2022-07-25T00:08:44.927Z,93.02
2022-07-25T00:09:44.906Z,93.22
2022-07-25T00:11:39.098Z,92.83
2022-07-25T00:12:39.093Z,93.60
2022-07-25T00:14:33.192Z,94.28
2022-07-25T00:15:33.187Z,92.74
2022-07-25T00:17:28.356Z,92.59
2022-07-25T00:18:28.335Z,92.40
2022-07-25T00:20:22.431Z,92.44
2022-07-25T00:21:22.427Z,91.96
2022-07-25T00:23:16.536Z,91.96
2022-07-25T00:24:16.514Z,91.96
2022-07-25T00:26:10.612Z,92.35
2022-07-25T00:27:10.607Z,92.25
2022-07-25T00:29:04.702Z,92.25
2022-07-25T00:30:04.690Z,93.22
2022-07-25T00:31:58.865Z,93.17
2022-07-25T00:32:58.852Z,93.17
2022-07-25T00:34:52.906Z,92.49
2022-07-25T00:35:52.897Z,93.17
2022-07-25T00:37:47.028Z,93.27
2022-07-25T00:38:47.011Z,92.98
2022-07-25T00:40:41.074Z,93.08
2022-07-25T00:41:41.070Z,93.46
2022-07-25T00:43:35.141Z,92.88
2022-07-25T00:44:35.129Z,93.08
2022-07-25T00:46:29.231Z,92.49
2022-07-25T00:47:29.193Z,91.72
2022-07-25T00:49:23.261Z,92.59
2022-07-25T00:50:23.247Z,91.63
2022-07-25T00:52:17.357Z,91.82
2022-07-25T00:53:17.341Z,92.40
2022-07-25T00:55:12.426Z,91.91
2022-07-25T00:56:12.420Z,91.91
2022-07-25T00:58:07.697Z,91.33
2022-07-25T00:59:07.678Z,91.33
2022-07-25T01:01:01.858Z,92.59
2022-07-25T01:02:03.733Z,92.11
2022-07-25T01:03:55.950Z,92.49
2022-07-25T01:04:55.930Z,92.11
2022-07-25T01:06:50.006Z,92.49
2022-07-25T01:07:50.001Z,92.11
2022-07-25T01:09:44.091Z,93.17
2022-07-25T01:10:44.080Z,93.08
2022-07-25T01:12:38.043Z,93.17
2022-07-25T01:13:38.034Z,93.08
2022-07-25T01:15:32.165Z,93.75
2022-07-25T01:16:32.124Z,93.56
2022-07-25T01:18:26.247Z,93.56
2022-07-25T01:19:26.232Z,93.85
2022-07-25T01:21:20.328Z,93.17
2022-07-25T01:22:20.321Z,93.17
2022-07-25T01:24:14.408Z,93.85
2022-07-25T01:25:15.264Z,94.38
2022-07-25T01:27:09.552Z,93.99
2022-07-25T01:28:09.540Z,94.77
2022-07-25T01:30:03.267Z,94.77
2022-07-25T01:31:03.282Z,95.73
2022-07-25T01:32:57.315Z,94.62
2022-07-25T01:33:57.299Z,95.35
2022-07-25T01:35:51.381Z,95.15
2022-07-25T01:36:51.376Z,95.35
2022-07-25T01:38:45.562Z,95.64
2022-07-25T01:39:45.546Z,95.64
2022-07-25T01:41:40.676Z,95.06
2022-07-25T01:42:40.670Z,94.77
2022-07-25T01:44:35.748Z,94.77
2022-07-25T01:45:35.735Z,95.45
2022-07-25T01:47:29.793Z,95.06
2022-07-25T01:48:29.855Z,94.67
2022-07-25T01:50:24.546Z,95.64
2022-07-25T01:51:26.393Z,95.15
2022-07-25T01:53:18.675Z,95.64
2022-07-25T01:54:18.665Z,95.54
2022-07-25T01:56:12.905Z,95.25
2022-07-25T01:57:12.904Z,95.73
2022-07-25T01:59:08.013Z,95.35
2022-07-25T02:00:08.000Z,95.64
2022-07-25T02:02:04.251Z,96.03
2022-07-25T02:03:04.113Z,95.73
2022-07-25T02:04:58.357Z,95.54
2022-07-25T02:05:58.206Z,95.25
2022-07-25T02:07:52.286Z,94.87
2022-07-25T02:08:52.259Z,94.67
2022-07-25T02:10:47.348Z,94.38
2022-07-25T02:11:47.347Z,94.77
2022-07-25T02:13:41.426Z,93.90
2022-07-25T02:14:41.409Z,93.80
2022-07-25T02:16:35.565Z,93.51
2022-07-25T02:17:35.476Z,93.80
2022-07-25T02:19:29.597Z,93.51
2022-07-25T02:20:29.588Z,93.80
2022-07-25T02:22:23.331Z,93.80
2022-07-25T02:23:23.326Z,93.61
2022-07-25T02:25:17.494Z,92.93
2022-07-25T02:26:17.484Z,93.41
2022-07-25T02:28:11.696Z,93.71
2022-07-25T02:29:11.682Z,93.61
2022-07-25T02:31:06.788Z,94.09
2022-07-25T02:32:06.757Z,94.09
2022-07-25T02:34:00.837Z,92.98
2022-07-25T02:35:00.826Z,92.93
2022-07-25T02:36:55.092Z,92.93
2022-07-25T02:37:55.086Z,92.25
2022-07-25T02:39:49.171Z,92.45
2022-07-25T02:40:49.162Z,92.55
2022-07-25T02:42:43.263Z,92.45
2022-07-25T02:43:43.253Z,92.35
2022-07-25T02:45:37.415Z,92.93
2022-07-25T02:46:37.426Z,93.13
2022-07-25T02:48:32.511Z,93.32
2022-07-25T02:49:32.471Z,93.32
2022-07-25T02:51:27.523Z,94.04
2022-07-25T02:52:27.522Z,93.27
2022-07-25T02:54:21.615Z,94.04
2022-07-25T02:55:21.597Z,94.34
2022-07-25T02:57:15.686Z,94.24
2022-07-25T02:58:15.679Z,94.09
2022-07-25T03:00:10.764Z,94.34
2022-07-25T03:01:10.776Z,95.11
2022-07-25T03:03:04.826Z,95.40
2022-07-25T03:04:05.213Z,95.20
2022-07-25T03:05:59.896Z,95.64
2022-07-25T03:06:59.881Z,95.11
2022-07-25T03:08:53.726Z,94.53
2022-07-25T03:09:53.710Z,94.43
2022-07-25T03:11:48.838Z,95.20
2022-07-25T03:12:48.829Z,94.53
2022-07-25T03:14:42.981Z,95.20
2022-07-25T03:15:42.961Z,95.01
2022-07-25T03:17:37.046Z,95.20
2022-07-25T03:18:37.048Z,95.01
2022-07-25T03:20:31.144Z,95.40
2022-07-25T03:21:31.125Z,94.43
2022-07-25T03:23:26.178Z,94.43
2022-07-25T03:24:26.173Z,93.56
2022-07-25T03:26:20.291Z,94.62
2022-07-25T03:27:20.272Z,94.04
2022-07-25T03:29:14.397Z,94.34
2022-07-25T03:30:14.354Z,93.95
2022-07-25T03:32:09.459Z,93.85
2022-07-25T03:33:09.417Z,93.85
2022-07-25T03:35:03.513Z,94.04
2022-07-25T03:36:03.499Z,94.43
2022-07-25T03:37:57.582Z,94.62
2022-07-25T03:38:57.577Z,93.95
2022-07-25T03:40:51.699Z,94.43
2022-07-25T03:41:51.686Z,94.34
2022-07-25T03:43:45.764Z,94.92
2022-07-25T03:44:45.759Z,94.58
2022-07-25T03:46:39.843Z,94.87
2022-07-25T03:47:39.823Z,95.35
2022-07-25T03:49:33.885Z,94.53
2022-07-25T03:50:33.869Z,95.78
2022-07-25T03:52:28.101Z,94.82
2022-07-25T03:53:28.095Z,94.48
2022-07-25T03:55:22.198Z,94.14
2022-07-25T03:56:22.181Z,93.95
2022-07-25T03:58:16.262Z,94.53
2022-07-25T03:59:16.258Z,95.01
2022-07-25T04:01:10.756Z,94.92
2022-07-25T04:02:10.398Z,95.11
2022-07-25T04:04:04.983Z,94.53
2022-07-25T04:05:04.708Z,95.11
2022-07-25T04:06:58.799Z,94.72
2022-07-25T04:07:58.789Z,94.38
2022-07-25T04:09:52.911Z,94.53
2022-07-25T04:10:52.898Z,95.11
2022-07-25T04:12:46.979Z,95.88
2022-07-25T04:13:46.970Z,95.35
2022-07-25T04:15:41.059Z,95.50
2022-07-25T04:16:41.069Z,95.54
2022-07-25T04:18:35.096Z,95.25
2022-07-25T04:19:35.084Z,95.35
2022-07-25T04:21:29.237Z,95.45
2022-07-25T04:22:29.221Z,95.64
2022-07-25T04:24:23.274Z,96.03
2022-07-25T04:25:23.267Z,95.83
2022-07-25T04:27:17.340Z,96.41
2022-07-25T04:28:17.322Z,96.22
2022-07-25T04:30:11.098Z,96.70
2022-07-25T04:31:11.094Z,96.22
2022-07-25T04:33:06.185Z,95.83
2022-07-25T04:34:06.419Z,96.31
2022-07-25T04:36:00.331Z,95.54
2022-07-25T04:37:00.316Z,95.93
2022-07-25T04:38:54.021Z,96.41
2022-07-25T04:39:54.015Z,95.74
2022-07-25T04:41:48.083Z,95.83
2022-07-25T04:42:48.067Z,95.74
2022-07-25T04:44:42.158Z,96.80
2022-07-25T04:45:42.218Z,96.99
2022-07-25T04:47:36.334Z,96.99
2022-07-25T04:48:36.388Z,96.80
2022-07-25T04:50:30.382Z,96.22
2022-07-25T04:51:30.373Z,95.74
2022-07-25T04:53:24.451Z,96.41
2022-07-25T04:54:24.437Z,96.51
2022-07-25T04:56:18.594Z,96.80
2022-07-25T04:57:18.581Z,96.03
2022-07-25T04:59:12.678Z,96.61
2022-07-25T05:00:12.679Z,96.89
2022-07-25T05:02:06.871Z,96.51
2022-07-25T05:03:06.755Z,96.80
2022-07-25T05:05:02.893Z,96.80
2022-07-25T05:06:00.830Z,96.61
2022-07-25T05:07:54.920Z,96.61
2022-07-25T05:08:54.910Z,96.61
2022-07-25T05:10:50.005Z,97.04
2022-07-25T05:11:55.893Z,96.61
2022-07-25T05:13:45.093Z,96.80
2022-07-25T05:14:45.089Z,97.19
2022-07-25T05:16:39.192Z,97.57
2022-07-25T05:17:39.157Z,97.28
2022-07-25T05:19:33.257Z,97.14
2022-07-25T05:20:33.246Z,96.94
2022-07-25T05:22:28.621Z,97.04
2022-07-25T05:23:28.296Z,97.81
2022-07-25T05:25:22.348Z,97.19
2022-07-25T05:26:22.336Z,97.52
2022-07-25T05:28:16.572Z,97.62
2022-07-25T05:29:16.558Z,97.72
2022-07-25T05:31:10.710Z,97.14
2022-07-25T05:32:10.643Z,97.14
2022-07-25T05:34:05.068Z,96.46
2022-07-25T05:35:04.804Z,96.46
2022-07-25T05:36:58.964Z,97.33
2022-07-25T05:37:58.949Z,97.72
2022-07-25T05:39:53.049Z,96.36
2022-07-25T05:40:53.038Z,96.36
2022-07-25T05:42:47.185Z,96.70
2022-07-25T05:43:47.165Z,96.51
2022-07-25T05:45:41.253Z,95.64
2022-07-25T05:46:41.298Z,95.15
2022-07-25T05:48:35.377Z,95.64
2022-07-25T05:49:35.319Z,95.06
2022-07-25T05:51:29.395Z,94.57
2022-07-25T05:52:29.398Z,94.96
2022-07-25T05:54:23.469Z,95.64
2022-07-25T05:55:23.458Z,95.93
2022-07-25T05:57:17.548Z,95.40
2022-07-25T05:58:17.533Z,96.75
2022-07-25T06:00:11.598Z,95.10
2022-07-25T06:01:11.593Z,94.62
2022-07-25T06:03:05.849Z,93.85
2022-07-25T06:04:05.981Z,92.54
2022-07-25T06:05:59.790Z,92.35
2022-07-25T06:06:59.779Z,92.35
2022-07-25T06:08:53.884Z,93.02
2022-07-25T06:09:53.863Z,93.22
2022-07-25T06:11:54.331Z,94.52
2022-07-25T06:12:47.935Z,94.13
2022-07-25T06:14:42.057Z,94.04
2022-07-25T06:15:42.041Z,93.85
2022-07-25T06:17:36.109Z,93.65
2022-07-25T06:18:36.106Z,95.78
2022-07-25T06:20:31.191Z,93.07
2022-07-25T06:21:31.188Z,93.26
2022-07-25T06:23:27.679Z,93.51
2022-07-25T06:24:25.291Z,92.54
2022-07-25T06:26:19.390Z,91.96
2022-07-25T06:27:21.584Z,90.99
2022-07-25T06:29:13.494Z,90.99
2022-07-25T06:30:19.702Z,90.50
2022-07-25T06:32:07.553Z,90.26
2022-07-25T06:33:07.538Z,90.55
2022-07-25T06:35:01.639Z,90.55
2022-07-25T06:36:01.632Z,90.40
2022-07-25T06:37:55.765Z,89.82
2022-07-25T06:38:55.747Z,89.62
2022-07-25T06:40:49.834Z,88.27
2022-07-25T06:41:49.824Z,87.73
2022-07-25T06:43:43.902Z,87.92
2022-07-25T06:44:43.893Z,87.29
2022-07-25T06:46:38.160Z,86.65
2022-07-25T06:47:38.047Z,86.46
2022-07-25T06:49:32.154Z,83.10
2022-07-25T06:50:32.153Z,82.62
2022-07-25T06:52:26.320Z,83.24
2022-07-25T06:53:26.342Z,84.50
2022-07-25T06:55:20.400Z,83.37
2022-07-25T06:56:20.397Z,83.09
2022-07-25T06:58:14.501Z,80.99
2022-07-25T06:59:14.493Z,80.50
2022-07-25T07:01:08.607Z,80.83
2022-07-25T07:02:08.553Z,80.09
2022-07-25T07:04:02.800Z,79.55
2022-07-25T07:05:02.649Z,78.28
2022-07-25T07:06:56.952Z,77.60
2022-07-25T07:07:56.944Z,78.32
2022-07-25T07:09:51.014Z,77.58
2022-07-25T07:10:51.010Z,77.72
2022-07-25T07:12:45.083Z,76.58
2022-07-25T07:13:45.077Z,74.54
2022-07-25T07:15:39.297Z,73.27
2022-07-25T07:16:39.390Z,73.75
2022-07-25T07:18:34.446Z,72.78
2022-07-25T07:19:34.436Z,73.27
2022-07-25T07:21:28.524Z,72.81
2022-07-25T07:22:28.517Z,73.30
2022-07-25T07:24:24.101Z,72.91
2022-07-25T07:25:22.618Z,73.60
2022-07-25T07:27:16.768Z,74.44
2022-07-25T07:28:16.762Z,73.66
2022-07-25T07:30:10.636Z,74.93
2022-07-25T07:31:18.311Z,75.80
2022-07-25T07:33:05.929Z,75.37
2022-07-25T07:34:05.918Z,74.30
2022-07-25T07:36:00.142Z,75.27
2022-07-25T07:37:00.143Z,76.45
2022-07-25T07:38:54.247Z,73.88
2022-07-25T07:39:54.235Z,75.34
2022-07-25T07:41:48.317Z,74.91
2022-07-25T07:42:48.316Z,75.20
2022-07-25T07:44:42.501Z,76.08
2022-07-25T07:45:42.494Z,75.63
2022-07-25T07:47:36.598Z,76.51
2022-07-25T07:48:36.634Z,77.19
2022-07-25T07:50:30.666Z,77.68
2022-07-25T07:51:30.667Z,77.58
2022-07-25T07:53:24.757Z,78.79
2022-07-25T07:54:24.746Z,78.01
2022-07-25T07:56:19.841Z,76.15
2022-07-25T07:57:19.847Z,77.72
2022-07-25T07:59:13.969Z,76.90
2022-07-25T08:00:16.705Z,78.01
2022-07-25T08:02:08.129Z,76.74
2022-07-25T08:03:08.083Z,75.96
2022-07-25T08:05:02.202Z,75.18
2022-07-25T08:06:02.163Z,75.02
2022-07-25T08:07:56.256Z,74.18
2022-07-25T08:08:57.233Z,73.79
2022-07-25T08:10:51.891Z,73.85
2022-07-25T08:11:50.333Z,74.48
2022-07-25T08:13:44.484Z,75.49
2022-07-25T08:14:44.477Z,75.10
2022-07-25T08:16:38.671Z,74.61
2022-07-25T08:17:38.638Z,73.69
2022-07-25T08:19:32.737Z,73.50
2022-07-25T08:20:38.304Z,73.79
2022-07-25T08:22:26.822Z,73.75
2022-07-25T08:23:26.822Z,73.27
2022-07-25T08:25:20.945Z,74.01
2022-07-25T08:26:20.915Z,73.91
2022-07-25T08:28:15.004Z,74.15
2022-07-25T08:29:20.571Z,75.12
2022-07-25T08:31:09.226Z,75.70
2022-07-25T08:32:09.178Z,76.97
2022-07-25T08:34:03.378Z,77.85
2022-07-25T08:35:05.117Z,75.51
2022-07-25T08:36:57.359Z,75.51
2022-07-25T08:37:57.359Z,76.48
2022-07-25T08:39:51.528Z,74.54
2022-07-25T08:40:51.518Z,75.05
2022-07-25T08:42:45.596Z,75.25
2022-07-25T08:43:45.595Z,73.79
2022-07-25T08:45:39.701Z,73.99
2022-07-25T08:46:39.719Z,73.95
2022-07-25T08:48:34.834Z,75.15
2022-07-25T08:49:34.778Z,74.57
2022-07-25T08:51:28.844Z,75.35
2022-07-25T08:52:28.847Z,73.54
2022-07-25T08:54:22.973Z,73.93
2022-07-25T08:55:22.928Z,72.95
2022-07-25T08:57:17.117Z,74.54
2022-07-25T08:58:17.116Z,72.88
2022-07-25T09:00:11.229Z,72.88
2022-07-25T09:01:11.248Z,73.08
2022-07-25T09:03:05.454Z,73.37
2022-07-25T09:04:05.520Z,71.94
2022-07-25T09:05:59.415Z,74.09
2022-07-25T09:06:59.415Z,73.70
2022-07-25T09:08:53.534Z,72.17
2022-07-25T09:09:53.527Z,72.27
2022-07-25T09:11:47.620Z,72.21
2022-07-25T09:12:47.632Z,71.75
2022-07-25T09:14:41.923Z,70.19
2022-07-25T09:15:41.962Z,69.99
2022-07-25T09:17:36.653Z,70.48
2022-07-25T09:18:36.648Z,69.18
2022-07-25T09:20:30.822Z,69.37
2022-07-25T09:21:30.821Z,69.08
2022-07-25T09:23:24.965Z,69.76
2022-07-25T09:24:24.961Z,69.47
2022-07-25T09:26:19.033Z,70.87
2022-07-25T09:27:19.033Z,69.01
2022-07-25T09:29:16.186Z,68.43
2022-07-25T09:30:13.091Z,69.34
2022-07-25T09:32:07.198Z,71.00
2022-07-25T09:33:07.195Z,68.55
2022-07-25T09:35:01.334Z,69.08
2022-07-25T09:36:01.314Z,68.10
2022-07-25T09:37:55.410Z,67.90
2022-07-25T09:38:55.417Z,68.52
2022-07-25T09:40:49.529Z,69.21
2022-07-25T09:41:49.524Z,67.68
2022-07-25T09:43:43.782Z,67.09
2022-07-25T09:44:43.778Z,66.93
2022-07-25T09:46:38.034Z,66.33
2022-07-25T09:47:37.963Z,66.04
2022-07-25T09:49:32.334Z,66.33
2022-07-25T09:50:32.325Z,65.25
2022-07-25T09:52:28.489Z,64.18
2022-07-25T09:53:28.495Z,63.88
2022-07-25T09:55:22.607Z,64.44
2022-07-25T09:56:22.599Z,65.29
2022-07-25T09:58:16.748Z,65.68
2022-07-25T09:59:16.755Z,65.26
2022-07-25T10:01:11.067Z,65.65
2022-07-25T10:02:11.108Z,66.93
2022-07-25T10:04:06.597Z,68.00
2022-07-25T10:05:06.264Z,67.61
2022-07-25T10:07:00.368Z,68.00
2022-07-25T10:08:00.371Z,68.16
2022-07-25T10:09:54.502Z,67.48
2022-07-25T10:10:54.494Z,69.15
2022-07-25T10:12:48.601Z,69.21
2022-07-25T10:13:48.604Z,69.01
2022-07-25T10:15:42.875Z,68.98
2022-07-25T10:16:42.949Z,68.59
2022-07-25T10:18:37.103Z,68.59
2022-07-25T10:19:37.099Z,69.27
2022-07-25T10:21:31.210Z,69.96
2022-07-25T10:22:54.732Z,70.31
2022-07-25T10:24:25.322Z,70.12
2022-07-25T10:25:25.316Z,70.51
2022-07-25T10:27:19.389Z,71.30
2022-07-25T10:28:19.390Z,71.39
2022-07-25T10:30:13.191Z,71.69
2022-07-25T10:31:13.244Z,71.55
2022-07-25T10:33:07.315Z,71.55
2022-07-25T10:34:07.801Z,71.26
2022-07-25T10:36:01.410Z,72.92
2022-07-25T10:37:01.407Z,73.60
2022-07-25T10:38:55.495Z,73.90
2022-07-25T10:39:55.498Z,75.07
2022-07-25T10:41:49.723Z,71.55
2022-07-25T10:42:49.714Z,73.08
2022-07-25T10:44:43.801Z,75.33
2022-07-25T10:45:43.871Z,77.19
2022-07-25T10:47:37.913Z,79.69
2022-07-25T10:48:37.996Z,80.47
2022-07-25T10:50:54.325Z,80.66
2022-07-25T10:51:32.034Z,80.86
2022-07-25T10:53:26.108Z,78.03
2022-07-25T10:54:26.117Z,78.61
2022-07-25T10:56:20.205Z,81.21
2022-07-25T10:57:20.198Z,81.11
2022-07-25T10:59:14.277Z,80.33
2022-07-25T11:00:14.275Z,79.94
2022-07-25T11:02:08.528Z,81.21
2022-07-25T11:03:08.423Z,80.88
2022-07-25T11:05:02.575Z,80.98
2022-07-25T11:06:02.563Z,81.07
2022-07-25T11:08:20.538Z,82.14
2022-07-25T11:08:56.670Z,82.82
2022-07-25T11:10:50.781Z,83.51
2022-07-25T11:11:50.772Z,83.41
2022-07-25T11:13:44.865Z,84.00
2022-07-25T11:14:44.868Z,83.41
2022-07-25T11:16:39.164Z,84.00
2022-07-25T11:17:39.056Z,82.92
2022-07-25T11:19:33.180Z,84.39
2022-07-25T11:20:33.180Z,85.46
2022-07-25T11:22:27.259Z,84.09
2022-07-25T11:23:27.257Z,85.81
2022-07-25T11:25:21.357Z,83.80
2022-07-25T11:26:21.352Z,83.41
2022-07-25T11:28:15.450Z,82.79
2022-07-25T11:29:15.448Z,82.89
2022-07-25T11:31:09.554Z,82.79
2022-07-25T11:32:09.659Z,82.98
2022-07-25T11:34:03.666Z,82.92
2022-07-25T11:35:03.662Z,81.36
2022-07-25T11:36:57.721Z,81.26
2022-07-25T11:37:57.710Z,81.36
2022-07-25T11:39:53.075Z,81.79
2022-07-25T11:40:51.798Z,80.76
2022-07-25T11:42:47.098Z,79.94
2022-07-25T11:43:47.094Z,80.13
2022-07-25T11:45:41.294Z,79.30
2022-07-25T11:46:41.250Z,80.57
2022-07-25T11:48:35.388Z,80.60
2022-07-25T11:49:35.338Z,80.31
2022-07-25T11:51:30.491Z,78.85
2022-07-25T11:52:30.476Z,79.14
2022-07-25T11:54:24.571Z,78.55
2022-07-25T11:55:24.561Z,78.65
2022-07-25T11:57:19.705Z,78.85
2022-07-25T11:58:19.698Z,79.14
2022-07-25T12:00:13.792Z,77.67
2022-07-25T12:01:13.786Z,78.06
2022-07-25T12:03:07.920Z,77.87
2022-07-25T12:04:07.842Z,78.06
2022-07-25T12:06:01.999Z,77.05
2022-07-25T12:07:01.987Z,78.42
2022-07-25T12:08:56.088Z,78.52
2022-07-25T12:09:56.088Z,77.54
2022-07-25T12:11:50.294Z,77.50
2022-07-25T12:12:50.273Z,78.67
2022-07-25T12:14:44.343Z,77.98
2022-07-25T12:15:44.334Z,77.89
2022-07-25T12:17:38.499Z,79.55
2022-07-25T12:18:38.499Z,79.55
2022-07-25T12:20:32.585Z,78.86
2022-07-25T12:21:32.574Z,79.06
2022-07-25T12:23:26.657Z,78.96
2022-07-25T12:24:26.660Z,78.83
2022-07-25T12:26:20.742Z,78.05
2022-07-25T12:27:20.733Z,79.32
2022-07-25T12:29:14.821Z,80.13
2022-07-25T12:30:14.821Z,80.33
2022-07-25T12:32:08.909Z,79.84
2022-07-25T12:33:08.902Z,78.91
2022-07-25T12:35:03.054Z,79.59
2022-07-25T12:36:08.080Z,78.13
2022-07-25T12:37:57.225Z,79.00
2022-07-25T12:38:57.208Z,79.39
2022-07-25T12:40:51.315Z,78.55
2022-07-25T12:41:51.308Z,78.36
2022-07-25T12:43:45.535Z,77.58
2022-07-25T12:44:45.537Z,77.87
2022-07-25T12:46:39.675Z,76.64
2022-07-25T12:47:39.670Z,76.89
2022-07-25T12:49:33.758Z,76.21
2022-07-25T12:50:33.759Z,76.60
2022-07-25T12:52:27.928Z,76.50
2022-07-25T12:53:27.921Z,76.70
2022-07-25T12:55:22.038Z,76.31
2022-07-25T12:56:22.026Z,75.85
2022-07-25T12:58:16.217Z,75.37
2022-07-25T12:59:16.211Z,74.44
2022-07-25T13:01:10.027Z,75.37
2022-07-25T13:02:10.006Z,74.09
2022-07-25T13:04:04.025Z,73.60
2022-07-25T13:05:04.025Z,73.31
2022-07-25T13:06:59.134Z,73.86
2022-07-25T13:07:59.124Z,73.96
2022-07-25T13:09:53.267Z,74.05
2022-07-25T13:10:53.270Z,74.09
2022-07-25T13:12:47.388Z,72.43
2022-07-25T13:13:47.379Z,72.63
2022-07-25T13:15:41.472Z,71.94
2022-07-25T13:16:41.485Z,71.30
2022-07-25T13:18:35.567Z,70.38
2022-07-25T13:19:35.574Z,71.36
2022-07-25T13:21:29.653Z,71.75
2022-07-25T13:22:29.643Z,72.14
2022-07-25T13:24:23.727Z,71.98
2022-07-25T13:25:23.727Z,71.20
2022-07-25T13:27:17.889Z,71.39
2022-07-25T13:28:17.878Z,70.97
2022-07-25T13:30:13.745Z,72.33
2022-07-25T13:31:13.799Z,72.04
2022-07-25T13:33:07.828Z,72.82
2022-07-25T13:34:07.823Z,71.45
2022-07-25T13:36:01.964Z,72.04
2022-07-25T13:37:01.957Z,72.43
2022-07-25T13:38:57.076Z,71.20
2022-07-25T13:39:57.080Z,71.39
2022-07-25T13:41:51.151Z,71.49
2022-07-25T13:42:51.145Z,72.47
2022-07-25T13:44:45.251Z,71.59
2022-07-25T13:45:45.315Z,71.59
2022-07-25T13:47:39.408Z,72.96
2022-07-25T13:48:39.406Z,71.59
2022-07-25T13:50:33.490Z,70.51
2022-07-25T13:51:33.483Z,70.70
2022-07-25T13:53:30.246Z,71.16
2022-07-25T13:54:27.585Z,71.32
2022-07-25T13:56:21.693Z,71.78
2022-07-25T13:57:21.679Z,72.07
2022-07-25T13:59:20.851Z,73.14
2022-07-25T14:00:15.761Z,72.95
2022-07-25T14:02:09.944Z,73.05
2022-07-25T14:03:09.892Z,73.24
2022-07-25T14:05:04.496Z,73.14
2022-07-25T14:06:04.013Z,72.46
2022-07-25T14:07:58.123Z,73.27
2022-07-25T14:08:58.110Z,73.37
2022-07-25T14:10:53.236Z,72.82
2022-07-25T14:11:53.238Z,73.66
2022-07-25T14:13:47.336Z,72.92
2022-07-25T14:14:47.327Z,72.63
2022-07-25T14:16:41.485Z,72.72
2022-07-25T14:17:41.424Z,73.31
2022-07-25T14:19:35.521Z,73.11
2022-07-25T14:20:35.527Z,72.43
2022-07-25T14:22:30.648Z,72.98
2022-07-25T14:23:30.639Z,73.96
2022-07-25T14:25:24.558Z,73.31
2022-07-25T14:26:24.558Z,73.41
2022-07-25T14:28:18.665Z,72.43
2022-07-25T14:29:18.651Z,72.63
2022-07-25T14:31:12.803Z,73.11
2022-07-25T14:32:12.863Z,72.53
2022-07-25T14:34:08.049Z,73.31
2022-07-25T14:35:08.035Z,72.72
2022-07-25T14:37:02.254Z,72.59
2022-07-25T14:38:02.247Z,72.88
2022-07-25T14:39:56.408Z,73.34
2022-07-25T14:40:56.411Z,73.47
2022-07-25T14:42:50.543Z,73.76
2022-07-25T14:43:50.531Z,73.18
2022-07-25T14:45:44.601Z,72.72
2022-07-25T14:46:44.674Z,73.02
2022-07-25T14:48:38.430Z,72.98
2022-07-25T14:49:38.346Z,72.98
2022-07-25T14:51:32.572Z,73.18
2022-07-25T14:52:32.569Z,73.18
2022-07-25T14:54:27.698Z,73.27
2022-07-25T14:55:27.686Z,73.08
2022-07-25T14:57:21.776Z,73.63
2022-07-25T14:58:21.773Z,73.57
2022-07-25T15:00:15.830Z,73.24
2022-07-25T15:01:15.971Z,73.54
2022-07-25T15:03:09.934Z,73.63
2022-07-25T15:04:09.926Z,73.63
2022-07-25T15:06:04.011Z,74.28
2022-07-25T15:07:04.014Z,74.38
2022-07-25T15:08:58.135Z,73.75
2022-07-25T15:09:58.237Z,73.85
2022-07-25T15:11:52.186Z,74.60
2022-07-25T15:13:07.851Z,73.66
2022-07-25T15:14:46.266Z,73.85
2022-07-25T15:15:46.259Z,74.44
2022-07-25T15:17:40.385Z,73.66
2022-07-25T15:19:05.392Z,73.36
2022-07-25T15:20:34.463Z,73.27
2022-07-25T15:21:34.466Z,73.75
2022-07-25T15:23:30.530Z,73.75
2022-07-25T15:24:29.321Z,73.66
2022-07-25T15:26:22.654Z,73.62
2022-07-25T15:27:22.657Z,74.30
2022-07-25T15:29:16.778Z,74.89
2022-07-25T15:30:16.770Z,74.40
2022-07-25T15:33:02.640Z,75.53
2022-07-25T15:34:02.628Z,75.24
2022-07-25T15:35:56.783Z,75.98
2022-07-25T15:36:56.780Z,76.28
2022-07-25T15:38:51.052Z,76.96
2022-07-25T15:39:51.044Z,77.34
2022-07-25T15:41:45.240Z,78.03
2022-07-25T15:42:45.240Z,78.48
2022-07-25T15:44:40.371Z,78.67
2022-07-25T15:45:40.363Z,79.16
2022-07-25T15:47:34.521Z,80.33
2022-07-25T15:48:34.447Z,80.43
2022-07-25T15:50:28.507Z,80.13
2022-07-25T15:51:28.508Z,79.64
2022-07-25T15:53:22.590Z,80.29
2022-07-25T15:54:25.157Z,80.09
2022-07-25T15:56:16.692Z,80.68
2022-07-25T15:57:16.692Z,80.58
2022-07-25T15:59:10.818Z,80.00
2022-07-25T16:00:10.732Z,80.77
2022-07-25T16:02:05.827Z,81.07
2022-07-25T16:03:05.827Z,80.68
2022-07-25T16:04:59.907Z,80.77
2022-07-25T16:05:59.900Z,80.97
2022-07-25T16:07:53.991Z,80.87
2022-07-25T16:08:53.989Z,80.54
2022-07-25T16:10:48.177Z,80.93
2022-07-25T16:11:48.166Z,80.54
2022-07-25T16:13:42.272Z,81.02
2022-07-25T16:14:42.261Z,81.02
2022-07-25T16:16:36.456Z,80.93
2022-07-25T16:17:36.406Z,81.38
2022-07-25T16:19:30.466Z,81.76
2022-07-25T16:20:30.456Z,81.76
2022-07-25T16:22:24.538Z,81.48
2022-07-25T16:23:24.556Z,81.96
2022-07-25T16:25:18.628Z,82.93
2022-07-25T16:26:18.619Z,82.15
2022-07-25T16:28:12.692Z,82.25
2022-07-25T16:29:12.924Z,82.06
2022-07-25T16:31:06.887Z,82.11
2022-07-25T16:32:06.819Z,81.73
2022-07-25T16:34:00.906Z,82.21
2022-07-25T16:35:00.897Z,82.45
2022-07-25T16:36:55.061Z,81.82
2022-07-25T16:37:55.057Z,82.02
2022-07-25T16:39:50.326Z,81.53
2022-07-25T16:40:50.314Z,82.31
2022-07-25T16:42:44.456Z,82.21
2022-07-25T16:43:44.452Z,82.60
2022-07-25T16:45:38.553Z,82.79
2022-07-25T16:46:38.596Z,82.79
2022-07-25T16:48:32.678Z,82.50
2022-07-25T16:49:32.633Z,82.50
2022-07-25T16:51:27.719Z,81.92
2022-07-25T16:52:27.716Z,82.31
2022-07-25T16:54:21.795Z,82.40
2022-07-25T16:55:21.783Z,82.02
2022-07-25T16:57:15.980Z,82.11
2022-07-25T16:58:15.975Z,81.24
2022-07-25T17:00:10.130Z,82.40
2022-07-25T17:01:10.121Z,82.02
2022-07-25T17:03:04.288Z,82.02
2022-07-25T17:04:04.291Z,82.11
2022-07-25T17:05:58.386Z,82.27
2022-07-25T17:06:58.378Z,81.88
2022-07-25T17:08:52.539Z,82.11
2022-07-25T17:09:52.528Z,82.11
2022-07-25T17:11:46.671Z,81.82
2022-07-25T17:12:46.669Z,82.11
2022-07-25T17:14:40.445Z,81.53
2022-07-25T17:15:40.505Z,80.85
2022-07-25T17:17:34.541Z,81.34
2022-07-25T17:18:34.535Z,81.82
2022-07-25T17:20:28.633Z,81.63
2022-07-25T17:21:28.625Z,81.34
2022-07-25T17:23:22.781Z,81.53
2022-07-25T17:24:22.762Z,81.34
2022-07-25T17:26:16.887Z,81.53
2022-07-25T17:27:16.885Z,81.14
2022-07-25T17:29:11.116Z,80.94
2022-07-25T17:30:10.981Z,81.34
2022-07-25T17:32:05.050Z,81.73
2022-07-25T17:33:05.046Z,81.73
2022-07-25T17:34:59.002Z,81.30
2022-07-25T17:35:58.989Z,81.49
2022-07-25T17:37:53.093Z,82.07
2022-07-25T17:38:53.089Z,82.17
2022-07-25T17:40:47.265Z,82.27
2022-07-25T17:41:47.211Z,82.27
2022-07-25T17:43:41.324Z,82.37
2022-07-25T17:44:41.315Z,82.65
2022-07-25T17:46:35.483Z,82.27
2022-07-25T17:47:35.458Z,81.30
2022-07-25T17:49:29.589Z,81.49
2022-07-25T17:50:29.670Z,81.49
2022-07-25T17:52:23.676Z,81.20
2022-07-25T17:53:23.673Z,81.49
2022-07-25T17:55:17.836Z,80.91
2022-07-25T17:56:17.829Z,81.06
2022-07-25T17:58:11.942Z,81.01
2022-07-25T17:59:11.925Z,81.10
2022-07-25T18:01:10.232Z,80.62
2022-07-25T18:02:06.075Z,80.81
2022-07-25T18:04:00.151Z,80.13
2022-07-25T18:05:00.141Z,79.55
2022-07-25T18:06:54.895Z,79.32
2022-07-25T18:07:54.895Z,79.02
2022-07-25T18:09:48.969Z,79.32
2022-07-25T18:10:48.959Z,78.83
2022-07-25T18:12:43.052Z,78.92
2022-07-25T18:13:43.047Z,79.12
2022-07-25T18:15:37.162Z,80.05
2022-07-25T18:16:37.107Z,80.25
2022-07-25T18:18:32.399Z,79.57
2022-07-25T18:19:32.395Z,79.86
2022-07-25T18:21:26.558Z,79.86
2022-07-25T18:22:26.543Z,79.61
2022-07-25T18:24:20.724Z,79.57
2022-07-25T18:25:20.711Z,80.34
2022-07-25T18:27:14.832Z,80.25
2022-07-25T18:28:14.832Z,80.15
2022-07-25T18:30:09.584Z,80.44
2022-07-25T18:31:09.609Z,80.63
2022-07-25T18:33:04.869Z,80.63
2022-07-25T18:34:05.167Z,80.63
2022-07-25T18:36:00.890Z,80.83
2022-07-25T18:36:59.034Z,80.44
2022-07-25T18:38:53.119Z,80.79
2022-07-25T18:39:53.117Z,81.27
2022-07-25T18:41:48.245Z,81.18